createdAt,value
2023-12-10T00:03:15.447Z,47.63
2023-12-10T00:06:18.977Z,50.63
2023-12-10T00:09:21.621Z,48.10
2023-12-10T00:12:24.192Z,45.17
2023-12-10T00:15:26.681Z,44.30
2023-12-10T00:18:29.257Z,47.00
2023-12-10T00:21:32.923Z,45.50
2023-12-10T00:24:35.638Z,44.33
2023-12-10T00:27:40.777Z,49.77
2023-12-10T00:30:44.416Z,42.53
2023-12-10T00:33:47.123Z,41.87
2023-12-10T00:36:49.955Z,40.80
2023-12-10T00:39:52.675Z,48.37
2023-12-10T00:42:55.129Z,40.20
2023-12-10T00:45:59.246Z,48.87
2023-12-10T00:49:01.726Z,47.83
2023-12-10T00:52:06.382Z,43.33
2023-12-10T00:55:08.824Z,47.07
2023-12-10T00:58:12.512Z,44.60
2023-12-10T01:01:14.663Z,47.03
2023-12-10T01:04:17.030Z,47.23
2023-12-10T01:07:20.758Z,36.70
2023-12-10T01:10:24.084Z,40.13
2023-12-10T01:13:26.374Z,39.97
2023-12-10T01:16:29.712Z,36.20
2023-12-10T01:19:32.034Z,35.13
2023-12-10T01:22:35.199Z,38.33
2023-12-10T01:25:37.495Z,30.63
2023-12-10T01:28:39.992Z,28.77
2023-12-10T01:31:43.580Z,27.60
2023-12-10T01:34:50.584Z,25.87
2023-12-10T01:37:54.207Z,22.07
2023-12-10T01:40:56.525Z,18.80
2023-12-10T01:43:59.812Z,24.57
2023-12-10T01:47:02.129Z,22.57
2023-12-10T01:50:05.862Z,23.23
2023-12-10T01:53:09.523Z,21.60
2023-12-10T01:56:12.177Z,19.93
2023-12-10T01:59:15.910Z,20.23
2023-12-10T02:02:19.615Z,22.80
2023-12-10T02:05:22.103Z,25.30
2023-12-10T02:08:25.743Z,24.00
2023-12-10T02:11:27.947Z,21.47
2023-12-10T02:14:30.265Z,21.27
2023-12-10T02:17:34.613Z,22.10
2023-12-10T02:20:37.789Z,20.50
2023-12-10T02:23:47.476Z,22.17
2023-12-10T02:26:52.166Z,20.27
2023-12-10T02:29:54.810Z,22.30
2023-12-10T02:33:05.545Z,24.60
2023-12-10T02:36:10.210Z,24.80
2023-12-10T02:39:12.521Z,27.30
2023-12-10T02:42:15.786Z,32.33
2023-12-10T02:45:24.225Z,28.57
2023-12-10T02:48:27.750Z,26.07
2023-12-10T02:51:30.206Z,24.33
2023-12-10T02:54:32.614Z,22.80
2023-12-10T02:58:05.066Z,22.87
2023-12-10T03:01:09.527Z,24.20
2023-12-10T03:04:14.196Z,26.47
2023-12-10T03:07:18.472Z,24.47
2023-12-10T03:10:21.124Z,29.23
2023-12-10T03:13:23.599Z,26.30
2023-12-10T03:16:31.981Z,26.17
2023-12-10T03:19:34.360Z,29.53
2023-12-10T03:22:36.987Z,29.23
2023-12-10T03:25:40.316Z,30.90
2023-12-10T03:28:42.595Z,25.73
2023-12-10T03:31:44.901Z,25.73
2023-12-10T03:34:47.214Z,27.10
2023-12-10T03:37:50.487Z,28.87
2023-12-10T03:40:53.675Z,29.27
2023-12-10T03:43:56.075Z,28.57
2023-12-10T03:47:02.980Z,25.23
2023-12-10T03:50:05.341Z,26.73
2023-12-10T03:53:07.942Z,25.43
2023-12-10T03:56:11.249Z,27.13
2023-12-10T03:59:13.563Z,26.70
2023-12-10T04:02:15.856Z,32.67
2023-12-10T04:05:18.209Z,37.73
2023-12-10T04:08:21.886Z,31.77
2023-12-10T04:11:27.293Z,36.50
2023-12-10T04:14:30.491Z,41.10
2023-12-10T04:17:33.848Z,44.07
2023-12-10T04:20:37.666Z,44.80
2023-12-10T04:23:39.734Z,40.57
2023-12-10T04:26:42.217Z,44.30
2023-12-10T04:29:44.873Z,40.23
2023-12-10T04:32:48.662Z,44.20
2023-12-10T04:35:50.978Z,39.73
2023-12-10T04:38:53.098Z,41.93
2023-12-10T04:41:55.480Z,42.53
2023-12-10T04:44:57.799Z,40.93
2023-12-10T04:48:01.238Z,40.03
2023-12-10T04:51:06.193Z,42.63
2023-12-10T04:54:09.823Z,41.20
2023-12-10T04:57:38.491Z,36.50
2023-12-10T05:00:41.156Z,34.87
2023-12-10T05:03:45.743Z,32.83
2023-12-10T05:06:49.394Z,34.27
2023-12-10T05:09:51.799Z,30.73
2023-12-10T05:12:55.172Z,29.13
2023-12-10T05:15:58.984Z,29.07
2023-12-10T05:19:03.930Z,29.83
2023-12-10T05:22:09.009Z,31.77
2023-12-10T05:25:12.824Z,35.63
2023-12-10T05:28:16.192Z,34.00
2023-12-10T05:31:18.452Z,29.43
2023-12-10T05:34:20.808Z,30.00
2023-12-10T05:37:24.087Z,31.27
2023-12-10T05:40:27.328Z,29.73
2023-12-10T05:43:29.688Z,29.80
2023-12-10T05:46:31.935Z,29.73
2023-12-10T05:49:34.259Z,26.40
2023-12-10T05:52:37.036Z,31.13
2023-12-10T05:55:39.176Z,33.07
2023-12-10T05:58:41.555Z,28.33
2023-12-10T06:01:44.265Z,27.97
2023-12-10T06:04:46.651Z,24.03
2023-12-10T06:07:49.299Z,23.33
2023-12-10T06:10:51.690Z,25.00
2023-12-10T06:13:56.453Z,25.57
2023-12-10T06:16:58.713Z,39.77
2023-12-10T06:20:00.967Z,53.80
2023-12-10T06:23:04.289Z,54.07
2023-12-10T06:26:06.438Z,55.77
2023-12-10T06:29:09.898Z,55.77
2023-12-10T06:32:19.176Z,49.63
2023-12-10T06:35:26.672Z,56.13
2023-12-10T06:38:29.929Z,47.40
2023-12-10T06:41:32.356Z,48.17
2023-12-10T06:44:37.649Z,47.20
2023-12-10T06:47:39.969Z,49.17
2023-12-10T06:50:42.622Z,39.83
2023-12-10T06:53:45.184Z,43.50
2023-12-10T06:56:51.309Z,42.03
2023-12-10T06:59:53.964Z,43.03
2023-12-10T07:02:57.439Z,32.53
2023-12-10T07:06:00.691Z,39.27
2023-12-10T07:09:03.025Z,35.67
2023-12-10T07:12:11.327Z,37.33
2023-12-10T07:15:14.785Z,44.03
2023-12-10T07:18:18.561Z,60.83
2023-12-10T07:21:23.300Z,58.50
2023-12-10T07:24:25.579Z,58.37
2023-12-10T07:27:27.894Z,57.83
2023-12-10T07:30:30.829Z,55.77
2023-12-10T07:33:37.568Z,49.43
2023-12-10T07:36:40.983Z,52.33
2023-12-10T07:39:44.686Z,44.07
2023-12-10T07:42:48.389Z,48.40
2023-12-10T07:45:51.722Z,50.70
2023-12-10T07:48:55.191Z,46.40
2023-12-10T07:51:57.860Z,43.00
2023-12-10T07:55:00.634Z,43.17
2023-12-10T07:58:03.306Z,48.57
2023-12-10T08:01:13.466Z,41.50
2023-12-10T08:04:17.159Z,49.60
2023-12-10T08:07:27.095Z,49.07
2023-12-10T08:10:29.416Z,42.77
2023-12-10T08:13:39.075Z,45.63
2023-12-10T08:16:42.599Z,36.00
2023-12-10T08:19:44.953Z,42.80
2023-12-10T08:23:19.298Z,46.67
2023-12-10T08:26:22.611Z,57.27
2023-12-10T08:29:25.004Z,39.57
2023-12-10T08:32:32.774Z,43.90
2023-12-10T08:35:41.677Z,40.00
2023-12-10T08:38:44.170Z,38.47
2023-12-10T08:41:53.341Z,37.87
2023-12-10T08:44:55.815Z,33.53
2023-12-10T08:47:58.046Z,34.60
2023-12-10T08:51:00.314Z,38.53
2023-12-10T08:54:02.521Z,49.17
2023-12-10T08:57:05.018Z,40.40
2023-12-10T09:00:08.791Z,36.97
2023-12-10T09:03:12.552Z,44.37
2023-12-10T09:06:15.174Z,36.97
2023-12-10T09:09:18.695Z,35.70
2023-12-10T09:12:34.792Z,33.03
2023-12-10T09:15:40.943Z,34.27
2023-12-10T09:18:45.418Z,29.27
2023-12-10T09:21:51.761Z,37.73
2023-12-10T09:25:02.530Z,47.87
2023-12-10T09:28:07.836Z,32.40
2023-12-10T09:31:17.715Z,29.57
2023-12-10T09:34:26.134Z,31.73
2023-12-10T09:37:28.908Z,37.03
2023-12-10T09:40:34.827Z,34.93
2023-12-10T09:43:37.325Z,34.13
2023-12-10T09:46:39.698Z,40.97
2023-12-10T09:49:42.357Z,36.57
2023-12-10T09:52:47.047Z,42.97
2023-12-10T09:55:49.829Z,41.80
2023-12-10T09:58:52.261Z,46.37
2023-12-10T10:01:57.255Z,61.73
2023-12-10T10:05:04.753Z,67.27
2023-12-10T10:08:07.265Z,56.97
2023-12-10T10:11:11.193Z,50.70
2023-12-10T10:14:15.263Z,53.70
2023-12-10T10:17:26.650Z,54.40
2023-12-10T10:20:29.493Z,65.17
2023-12-10T10:23:33.097Z,57.63
2023-12-10T10:26:36.305Z,61.77
2023-12-10T10:29:39.017Z,51.53
2023-12-10T10:32:41.673Z,51.33
2023-12-10T10:35:45.914Z,41.40
2023-12-10T10:38:50.383Z,31.03
2023-12-10T10:41:55.039Z,32.50
2023-12-10T10:44:58.069Z,52.00
2023-12-10T10:48:01.170Z,40.30
2023-12-10T10:51:04.465Z,29.73
2023-12-10T10:54:08.012Z,33.83
2023-12-10T10:57:12.240Z,30.90
2023-12-10T11:00:18.785Z,33.40
2023-12-10T11:03:21.553Z,36.63
2023-12-10T11:06:25.819Z,37.53
2023-12-10T11:09:29.738Z,39.90
2023-12-10T11:12:41.197Z,52.53
2023-12-10T11:15:44.212Z,47.23
2023-12-10T11:18:59.274Z,35.57
2023-12-10T11:22:03.581Z,35.03
2023-12-10T11:25:07.152Z,19.10
2023-12-10T11:28:14.237Z,26.83
2023-12-10T11:31:16.664Z,27.83
2023-12-10T11:34:19.978Z,22.70
2023-12-10T11:37:22.311Z,23.30
2023-12-10T11:40:27.075Z,18.73
2023-12-10T11:43:29.431Z,19.33
2023-12-10T11:46:37.472Z,19.97
2023-12-10T11:49:43.730Z,23.70
2023-12-10T11:52:48.408Z,21.17
2023-12-10T11:55:52.544Z,25.77
2023-12-10T11:58:54.998Z,28.60
2023-12-10T12:01:57.665Z,35.90
2023-12-10T12:05:00.412Z,28.50
2023-12-10T12:08:02.882Z,30.10
2023-12-10T12:11:05.178Z,22.27
2023-12-10T12:14:07.423Z,24.27
2023-12-10T12:17:16.753Z,25.93
2023-12-10T12:20:19.942Z,23.17
2023-12-10T12:23:22.467Z,27.40
2023-12-10T12:26:24.772Z,24.73
2023-12-10T12:29:26.923Z,26.20
2023-12-10T12:32:34.696Z,27.83
2023-12-10T12:35:38.691Z,33.27
2023-12-10T12:38:40.959Z,26.77
2023-12-10T12:41:43.220Z,27.10
2023-12-10T12:44:45.443Z,26.30
2023-12-10T12:47:48.159Z,27.83
2023-12-10T12:50:50.522Z,23.73
2023-12-10T12:54:11.515Z,30.80
2023-12-10T12:57:15.257Z,28.03
2023-12-10T13:00:18.845Z,30.03
2023-12-10T13:03:22.961Z,29.37
2023-12-10T13:06:26.681Z,27.33
2023-12-10T13:09:29.251Z,18.57
2023-12-10T13:12:37.800Z,26.57
2023-12-10T13:15:39.970Z,33.00
2023-12-10T13:18:42.328Z,52.00
2023-12-10T13:21:44.670Z,27.23
2023-12-10T13:24:48.302Z,26.50
2023-12-10T13:27:51.741Z,33.87
2023-12-10T13:30:55.301Z,32.23
2023-12-10T13:33:58.010Z,29.53
2023-12-10T13:37:01.540Z,36.10
2023-12-10T13:40:05.714Z,28.87
2023-12-10T13:43:09.189Z,33.20
2023-12-10T13:46:12.226Z,32.00
2023-12-10T13:49:14.738Z,31.10
2023-12-10T13:52:16.981Z,32.03
2023-12-10T13:55:20.213Z,29.67
2023-12-10T13:58:23.732Z,28.83
2023-12-10T14:01:26.438Z,32.13
2023-12-10T14:04:29.750Z,36.73
2023-12-10T14:07:32.626Z,29.33
2023-12-10T14:10:35.418Z,27.17
2023-12-10T14:13:44.209Z,38.70
2023-12-10T14:16:52.021Z,41.20
2023-12-10T14:19:54.291Z,40.30
2023-12-10T14:22:57.580Z,40.90
2023-12-10T14:25:59.800Z,40.10
2023-12-10T14:29:03.260Z,34.00
2023-12-10T14:32:06.674Z,37.53
2023-12-10T14:35:09.758Z,33.17
2023-12-10T14:38:13.064Z,44.20
2023-12-10T14:41:15.349Z,40.30
2023-12-10T14:44:17.751Z,43.80
2023-12-10T14:47:24.050Z,49.40
2023-12-10T14:50:27.707Z,44.77
2023-12-10T14:53:30.172Z,42.07
2023-12-10T14:56:33.346Z,55.27
2023-12-10T14:59:35.638Z,54.57
2023-12-10T15:02:37.879Z,44.27
2023-12-10T15:05:40.242Z,43.13
2023-12-10T15:08:43.437Z,48.57
2023-12-10T15:11:46.935Z,48.17
2023-12-10T15:14:50.646Z,44.30
2023-12-10T15:17:57.725Z,47.37
2023-12-10T15:21:01.239Z,128.10
2023-12-10T15:24:04.712Z,154.13
2023-12-10T15:27:07.323Z,65.37
2023-12-10T15:30:10.507Z,60.70
2023-12-10T15:33:13.684Z,111.23
2023-12-10T15:36:20.155Z,105.37
2023-12-10T15:39:25.313Z,108.67
2023-12-10T15:42:30.159Z,84.40
2023-12-10T15:45:34.084Z,85.57
2023-12-10T15:48:38.257Z,66.53
2023-12-10T15:51:41.815Z,79.07
2023-12-10T15:54:46.735Z,90.23
2023-12-10T15:57:49.787Z,80.87
2023-12-10T16:00:56.223Z,96.23
2023-12-10T16:04:04.812Z,96.13
2023-12-10T16:07:07.773Z,85.87
2023-12-10T16:10:12.215Z,85.27
2023-12-10T16:13:20.237Z,96.37
2023-12-10T16:16:25.584Z,126.87
2023-12-10T16:19:28.260Z,130.47
2023-12-10T16:22:32.397Z,115.30
2023-12-10T16:25:36.013Z,98.80
2023-12-10T16:28:38.710Z,87.13
2023-12-10T16:31:48.645Z,100.60
2023-12-10T16:34:51.443Z,73.97
2023-12-10T16:37:55.349Z,76.97
2023-12-10T16:40:58.076Z,68.07
2023-12-10T16:44:02.394Z,65.80
2023-12-10T16:47:05.768Z,71.70
2023-12-10T16:50:09.247Z,78.97
2023-12-10T16:53:13.288Z,68.63
2023-12-10T16:56:16.155Z,70.40
2023-12-10T16:59:23.029Z,83.53
2023-12-10T17:02:27.512Z,94.87
2023-12-10T17:05:34.086Z,77.23
2023-12-10T17:08:37.933Z,56.90
2023-12-10T17:11:43.510Z,62.37
2023-12-10T17:14:46.710Z,68.80
2023-12-10T17:17:51.512Z,65.67
2023-12-10T17:20:55.189Z,57.30
2023-12-10T17:23:58.707Z,60.07
2023-12-10T17:27:02.876Z,64.63
2023-12-10T17:30:06.900Z,60.07
2023-12-10T17:33:10.162Z,65.47
2023-12-10T17:36:14.386Z,113.20
2023-12-10T17:39:17.931Z,75.00
2023-12-10T17:42:20.950Z,82.43
2023-12-10T17:45:24.389Z,87.30
2023-12-10T17:48:27.970Z,84.17
2023-12-10T17:51:32.498Z,68.83
2023-12-10T17:54:36.494Z,116.37
2023-12-10T17:57:40.365Z,83.37
2023-12-10T18:00:44.848Z,93.73
2023-12-10T18:03:47.849Z,91.80
2023-12-10T18:06:56.007Z,100.43
2023-12-10T18:09:59.249Z,75.43
2023-12-10T18:13:46.216Z,105.03
2023-12-10T18:16:51.505Z,86.03
2023-12-10T18:19:55.149Z,128.53
2023-12-10T18:23:03.831Z,75.77
2023-12-10T18:26:07.409Z,86.83
2023-12-10T18:29:10.445Z,80.40
2023-12-10T18:32:13.111Z,90.87
2023-12-10T18:35:23.849Z,98.77
2023-12-10T18:38:28.152Z,92.07
2023-12-10T18:41:32.306Z,94.17
2023-12-10T18:45:06.868Z,84.27
2023-12-10T18:48:14.481Z,78.60
2023-12-10T18:51:19.506Z,88.67
2023-12-10T18:54:25.546Z,73.27
2023-12-10T18:57:33.328Z,76.33
2023-12-10T19:00:39.463Z,73.60
2023-12-10T19:03:48.882Z,79.60
2023-12-10T19:06:52.056Z,84.57
2023-12-10T19:09:55.477Z,76.30
2023-12-10T19:12:58.290Z,85.07
2023-12-10T19:16:04.988Z,86.00
2023-12-10T19:19:17.144Z,80.77
2023-12-10T19:22:52.467Z,84.07
2023-12-10T19:25:54.911Z,88.47
2023-12-10T19:28:58.133Z,86.93
2023-12-10T19:32:05.905Z,95.67
2023-12-10T19:35:11.040Z,91.43
2023-12-10T19:38:13.758Z,86.83
2023-12-10T19:41:23.503Z,108.47
2023-12-10T19:44:28.453Z,90.13
2023-12-10T19:47:31.430Z,95.10
2023-12-10T19:50:35.821Z,90.10
2023-12-10T19:53:38.164Z,97.97
2023-12-10T19:56:40.639Z,87.50
2023-12-10T19:59:43.732Z,91.77
2023-12-10T20:02:46.387Z,90.43
2023-12-10T20:05:48.973Z,92.00
2023-12-10T20:08:52.154Z,98.57
2023-12-10T20:11:54.804Z,109.13
2023-12-10T20:14:59.510Z,90.13
2023-12-10T20:18:05.308Z,104.90
2023-12-10T20:21:08.054Z,102.70
2023-12-10T20:24:27.323Z,82.07
2023-12-10T20:27:39.230Z,93.27
2023-12-10T20:30:43.405Z,87.60
2023-12-10T20:33:46.269Z,70.13
2023-12-10T20:36:49.292Z,87.47
2023-12-10T20:39:53.575Z,70.33
2023-12-10T20:42:58.071Z,61.43
2023-12-10T20:46:33.334Z,69.33
2023-12-10T20:49:37.174Z,69.73
2023-12-10T20:52:39.715Z,88.40
2023-12-10T20:55:41.865Z,67.30
2023-12-10T20:58:44.085Z,67.10
2023-12-10T21:01:47.967Z,60.67
2023-12-10T21:04:50.587Z,56.43
2023-12-10T21:07:54.760Z,58.30
2023-12-10T21:10:58.630Z,56.70
2023-12-10T21:14:27.282Z,55.93
2023-12-10T21:17:30.481Z,57.30
2023-12-10T21:20:33.956Z,49.20
2023-12-10T21:23:38.584Z,96.60
2023-12-10T21:26:40.951Z,47.13
2023-12-10T21:29:43.757Z,41.47
2023-12-10T21:32:49.211Z,33.33
2023-12-10T21:35:54.106Z,28.00
2023-12-10T21:39:06.937Z,37.03
2023-12-10T21:42:09.333Z,41.67
2023-12-10T21:45:13.456Z,41.07
2023-12-10T21:48:16.699Z,43.47
2023-12-10T21:51:23.150Z,38.13
2023-12-10T21:54:31.894Z,43.33
2023-12-10T21:57:35.136Z,36.87
2023-12-10T22:00:40.784Z,40.63
2023-12-10T22:03:45.908Z,42.83
2023-12-10T22:06:49.060Z,34.43
2023-12-10T22:09:52.763Z,35.77
2023-12-10T22:12:55.430Z,31.37
2023-12-10T22:16:05.672Z,34.37
2023-12-10T22:19:12.996Z,39.03
2023-12-10T22:22:17.183Z,45.90
2023-12-10T22:25:20.053Z,39.03
2023-12-10T22:28:24.155Z,35.27
2023-12-10T22:31:27.270Z,49.83
2023-12-10T22:34:32.296Z,43.00
2023-12-10T22:37:35.660Z,34.77
2023-12-10T22:40:38.438Z,45.03
2023-12-10T22:43:44.656Z,35.47
2023-12-10T22:46:47.627Z,30.90
2023-12-10T22:49:53.105Z,43.07
2023-12-10T22:52:58.311Z,39.43
2023-12-10T22:56:03.112Z,35.70
2023-12-10T22:59:08.356Z,44.00
2023-12-10T23:02:13.473Z,40.33
2023-12-10T23:05:17.516Z,37.37
2023-12-10T23:08:20.522Z,49.63
2023-12-10T23:11:23.426Z,37.07
2023-12-10T23:14:28.516Z,47.93
2023-12-10T23:17:32.250Z,45.57
2023-12-10T23:20:35.232Z,43.93
2023-12-10T23:23:44.401Z,49.13
2023-12-10T23:26:49.636Z,48.83
2023-12-10T23:30:01.306Z,53.33
2023-12-10T23:33:04.618Z,44.67
2023-12-10T23:36:07.761Z,55.20
2023-12-10T23:39:35.736Z,53.27
2023-12-10T23:42:41.971Z,55.93
2023-12-10T23:45:45.192Z,40.90
2023-12-10T23:49:00.608Z,51.27
2023-12-10T23:52:04.805Z,40.13
2023-12-10T23:55:09.632Z,42.23
2023-12-10T23:58:13.835Z,36.97
